createdAt,value
2018-01-23T00:01:33.548Z,0.50
2018-01-23T00:04:01.107Z,0.43
2018-01-23T00:06:28.665Z,0.40
2018-01-23T00:08:56.231Z,0.47
2018-01-23T00:11:23.859Z,0.40
2018-01-23T00:13:51.423Z,0.30
2018-01-23T00:16:18.988Z,0.57
2018-01-23T00:18:46.555Z,0.40
2018-01-23T00:21:14.131Z,0.30
2018-01-23T00:23:42.442Z,0.40
2018-01-23T00:26:09.997Z,0.63
2018-01-23T00:28:37.550Z,0.80
2018-01-23T00:31:05.107Z,0.37
2018-01-23T00:33:32.662Z,0.40
2018-01-23T00:36:00.214Z,0.37
2018-01-23T00:38:27.799Z,0.50
2018-01-23T00:40:55.470Z,0.50
2018-01-23T00:43:23.018Z,0.50
2018-01-23T00:45:50.674Z,0.50
2018-01-23T00:48:18.230Z,0.30
2018-01-23T00:50:45.802Z,0.40
2018-01-23T00:53:13.466Z,0.43
2018-01-23T00:55:41.108Z,0.57
2018-01-23T00:58:08.658Z,0.50
2018-01-23T01:00:36.206Z,2.07
2018-01-23T01:03:03.776Z,5.50
2018-01-23T01:05:31.337Z,2.17
2018-01-23T01:07:58.910Z,2.20
2018-01-23T01:10:26.471Z,3.20
2018-01-23T01:12:54.036Z,0.60
2018-01-23T01:15:21.624Z,0.43
2018-01-23T01:17:49.964Z,1.17
2018-01-23T01:20:17.614Z,0.90
2018-01-23T01:22:45.167Z,0.53
2018-01-23T01:25:12.831Z,1.13
2018-01-23T01:27:40.413Z,1.17
2018-01-23T01:30:08.054Z,1.07
2018-01-23T01:32:35.638Z,0.70
2018-01-23T01:35:03.267Z,0.60
2018-01-23T01:37:30.829Z,1.70
2018-01-23T01:39:58.491Z,0.40
2018-01-23T01:42:27.754Z,1.27
2018-01-23T01:44:57.360Z,2.10
2018-01-23T01:47:25.654Z,0.50
2018-01-23T01:50:46.242Z,1.33
2018-01-23T01:53:13.823Z,0.50
2018-01-23T01:55:41.395Z,0.80
2018-01-23T01:58:08.979Z,0.70
2018-01-23T02:00:36.549Z,0.40
2018-01-23T02:03:04.908Z,0.63
2018-01-23T02:05:32.471Z,0.60
2018-01-23T02:08:00.095Z,0.40
2018-01-23T02:10:27.757Z,0.50
2018-01-23T02:12:55.339Z,1.03
2018-01-23T02:15:22.900Z,0.47
2018-01-23T02:17:50.527Z,0.60
2018-01-23T02:20:18.089Z,0.53
2018-01-23T02:22:45.653Z,1.30
2018-01-23T02:25:13.312Z,0.60
2018-01-23T02:27:40.872Z,0.50
2018-01-23T02:30:08.537Z,0.60
2018-01-23T02:32:36.103Z,0.50
2018-01-23T02:35:03.718Z,0.40
2018-01-23T02:37:31.311Z,1.20
2018-01-23T02:39:58.967Z,0.50
2018-01-23T02:42:26.726Z,0.40
2018-01-23T02:44:54.307Z,0.60
2018-01-23T02:47:21.875Z,0.60
2018-01-23T02:49:49.462Z,1.33
2018-01-23T02:52:17.021Z,0.43
2018-01-23T02:54:44.618Z,0.50
2018-01-23T02:57:12.177Z,0.50
2018-01-23T02:59:39.750Z,0.60
2018-01-23T03:02:07.311Z,0.50
2018-01-23T03:04:34.907Z,0.40
2018-01-23T03:07:02.481Z,0.73
2018-01-23T03:09:30.087Z,0.30
2018-01-23T03:11:57.647Z,0.50
2018-01-23T03:14:25.301Z,1.80
2018-01-23T03:16:52.873Z,0.90
2018-01-23T03:19:20.470Z,0.50
2018-01-23T03:21:48.035Z,0.53
2018-01-23T03:24:15.625Z,0.50
2018-01-23T03:26:43.191Z,0.87
2018-01-23T03:29:10.784Z,0.40
2018-01-23T03:31:39.217Z,0.60
2018-01-23T03:34:06.811Z,0.40
2018-01-23T03:36:35.248Z,0.60
2018-01-23T03:39:02.835Z,0.77
2018-01-23T03:41:30.407Z,0.93
2018-01-23T03:43:58.835Z,0.30
2018-01-23T03:46:26.405Z,0.40
2018-01-23T03:48:53.989Z,1.23
2018-01-23T03:51:21.567Z,0.30
2018-01-23T03:53:49.270Z,0.47
2018-01-23T03:56:16.939Z,0.43
2018-01-23T03:58:44.594Z,0.30
2018-01-23T04:01:12.183Z,0.50
2018-01-23T04:03:39.756Z,0.77
2018-01-23T04:06:08.187Z,0.70
2018-01-23T04:08:35.768Z,0.43
2018-01-23T04:11:03.411Z,0.73
2018-01-23T04:13:30.984Z,0.57
2018-01-23T04:15:58.577Z,0.50
2018-01-23T04:18:26.195Z,0.50
2018-01-23T04:20:53.843Z,0.30
2018-01-23T04:23:21.406Z,0.70
2018-01-23T04:25:48.992Z,0.67
2018-01-23T04:28:16.631Z,0.70
2018-01-23T04:30:44.288Z,0.40
2018-01-23T04:33:11.848Z,0.60
2018-01-23T04:35:39.410Z,0.50
2018-01-23T04:38:07.054Z,0.40
2018-01-23T04:40:34.644Z,0.60
2018-01-23T04:43:02.212Z,0.50
2018-01-23T04:45:29.802Z,0.50
2018-01-23T04:47:57.367Z,0.50
2018-01-23T04:50:24.938Z,0.40
2018-01-23T04:52:52.559Z,0.40
2018-01-23T04:55:20.886Z,0.50
2018-01-23T04:57:48.747Z,0.50
2018-01-23T05:00:16.302Z,0.60
2018-01-23T05:02:43.974Z,0.57
2018-01-23T05:05:11.618Z,0.37
2018-01-23T05:07:39.176Z,0.80
2018-01-23T05:10:06.847Z,0.50
2018-01-23T05:12:34.399Z,0.60
2018-01-23T05:15:02.040Z,0.60
2018-01-23T05:17:29.715Z,0.47
2018-01-23T05:19:57.297Z,0.40
2018-01-23T05:22:24.859Z,0.40
2018-01-23T05:24:52.439Z,0.60
2018-01-23T05:27:20.875Z,0.47
2018-01-23T05:29:48.472Z,0.60
2018-01-23T05:32:16.911Z,0.57
2018-01-23T05:34:44.499Z,0.50
2018-01-23T05:37:12.106Z,0.73
2018-01-23T05:39:39.784Z,0.43
2018-01-23T05:42:07.444Z,0.40
2018-01-23T05:44:35.019Z,0.40
2018-01-23T05:47:02.595Z,0.40
2018-01-23T05:49:30.184Z,0.60
2018-01-23T05:51:57.778Z,0.40
2018-01-23T05:54:25.350Z,0.57
2018-01-23T05:56:52.919Z,0.50
2018-01-23T05:59:20.514Z,0.50
2018-01-23T06:01:48.086Z,0.40
2018-01-23T06:04:15.668Z,0.43
2018-01-23T06:06:43.317Z,0.30
2018-01-23T06:09:11.709Z,0.60
2018-01-23T06:11:39.367Z,0.40
2018-01-23T06:14:06.950Z,0.40
2018-01-23T06:16:35.280Z,0.30
2018-01-23T06:19:02.833Z,0.30
2018-01-23T06:21:30.394Z,0.30
2018-01-23T06:23:58.203Z,0.30
2018-01-23T06:26:25.775Z,0.60
2018-01-23T06:28:53.339Z,0.33
2018-01-23T06:31:21.724Z,0.30
2018-01-23T06:33:49.291Z,0.40
2018-01-23T06:36:16.852Z,0.30
2018-01-23T06:38:44.407Z,0.40
2018-01-23T06:41:11.977Z,0.40
2018-01-23T06:43:39.564Z,0.40
2018-01-23T06:46:07.120Z,0.40
2018-01-23T06:48:34.679Z,0.30
2018-01-23T06:51:02.238Z,0.47
2018-01-23T06:53:29.899Z,0.50
2018-01-23T06:55:57.496Z,0.23
2018-01-23T06:58:25.835Z,0.40
2018-01-23T07:00:53.419Z,0.40
2018-01-23T07:03:20.989Z,0.40
2018-01-23T07:05:49.351Z,0.30
2018-01-23T07:08:17.104Z,0.30
2018-01-23T07:10:44.695Z,0.40
2018-01-23T07:13:13.131Z,0.30
2018-01-23T07:15:40.718Z,0.30
2018-01-23T07:18:09.053Z,0.40
2018-01-23T07:20:36.668Z,0.43
2018-01-23T07:23:05.104Z,0.40
2018-01-23T07:25:32.702Z,0.33
2018-01-23T07:28:01.040Z,0.30
2018-01-23T07:30:28.700Z,0.20
2018-01-23T07:32:56.263Z,0.30
2018-01-23T07:35:23.878Z,0.33
2018-01-23T07:37:51.470Z,0.40
2018-01-23T07:40:19.065Z,0.50
2018-01-23T07:42:46.631Z,0.27
2018-01-23T07:45:14.989Z,0.30
2018-01-23T07:47:42.613Z,0.20
2018-01-23T07:50:10.393Z,0.27
2018-01-23T07:52:37.965Z,0.40
2018-01-23T07:55:05.546Z,0.30
2018-01-23T07:57:33.959Z,0.50
2018-01-23T08:00:01.623Z,0.40
2018-01-23T08:02:29.191Z,0.23
2018-01-23T08:04:56.789Z,0.10
2018-01-23T08:07:24.420Z,0.40
2018-01-23T08:09:52.009Z,0.50
2018-01-23T08:12:20.340Z,0.40
2018-01-23T08:14:47.937Z,0.20
2018-01-23T08:17:15.495Z,0.40
2018-01-23T08:19:43.852Z,0.40
2018-01-23T08:22:11.411Z,0.23
2018-01-23T08:24:38.979Z,0.40
2018-01-23T08:27:06.546Z,0.30
2018-01-23T08:29:36.261Z,0.33
2018-01-23T08:32:04.603Z,0.40
2018-01-23T08:34:32.180Z,0.40
2018-01-23T08:36:59.759Z,0.30
2018-01-23T08:39:28.106Z,0.67
2018-01-23T08:41:55.853Z,0.40
2018-01-23T08:44:23.427Z,0.30
2018-01-23T08:46:51.066Z,0.40
2018-01-23T08:49:18.631Z,0.37
2018-01-23T08:51:46.197Z,0.30
2018-01-23T08:54:13.772Z,0.40
2018-01-23T08:56:41.338Z,0.30
2018-01-23T08:59:09.674Z,0.37
2018-01-23T09:01:37.335Z,0.30
2018-01-23T09:04:04.899Z,0.50
2018-01-23T09:06:34.019Z,0.40
2018-01-23T09:09:03.883Z,0.30
2018-01-23T09:11:31.707Z,0.23
2018-01-23T09:14:00.048Z,0.30
2018-01-23T09:16:27.655Z,0.40
2018-01-23T09:18:55.988Z,0.50
2018-01-23T09:21:23.576Z,0.27
2018-01-23T09:23:51.912Z,0.33
2018-01-23T09:26:19.746Z,0.30
2018-01-23T09:28:47.332Z,0.30
2018-01-23T09:31:14.929Z,0.30
2018-01-23T09:33:43.298Z,0.30
2018-01-23T09:36:10.895Z,0.40
2018-01-23T09:39:08.515Z,0.30
2018-01-23T09:41:36.248Z,0.20
2018-01-23T09:44:03.832Z,0.30
2018-01-23T09:46:31.433Z,0.37
2018-01-23T09:48:59.003Z,0.50
2018-01-23T09:51:26.574Z,0.30
2018-01-23T09:53:54.197Z,0.30
2018-01-23T09:56:21.763Z,0.30
2018-01-23T09:58:49.369Z,0.60
2018-01-23T10:01:16.938Z,0.30
2018-01-23T10:03:44.590Z,0.30
2018-01-23T10:06:12.159Z,0.40
2018-01-23T10:08:40.293Z,0.30
2018-01-23T10:11:08.031Z,0.20
2018-01-23T10:13:36.740Z,0.30
2018-01-23T10:16:05.132Z,0.40
2018-01-23T10:18:36.750Z,0.30
2018-01-23T10:21:07.495Z,0.27
2018-01-23T10:23:35.138Z,0.50
2018-01-23T10:26:02.844Z,0.43
2018-01-23T10:28:30.418Z,0.40
2018-01-23T10:30:58.147Z,0.30
2018-01-23T10:34:10.267Z,0.30
2018-01-23T10:36:37.854Z,0.30
2018-01-23T10:39:06.187Z,0.30
2018-01-23T10:41:33.790Z,1.20
2018-01-23T10:44:02.120Z,0.30
2018-01-23T10:46:29.702Z,0.30
2018-01-23T10:48:57.290Z,0.40
2018-01-23T10:51:25.622Z,0.47
2018-01-23T10:53:53.191Z,0.57
2018-01-23T10:56:20.785Z,0.40
2018-01-23T10:58:49.709Z,0.97
2018-01-23T11:01:17.341Z,1.00
2018-01-23T11:03:45.709Z,0.70
2018-01-23T11:06:15.375Z,0.50
2018-01-23T11:08:42.971Z,2.40
2018-01-23T11:11:11.330Z,1.17
2018-01-23T11:13:38.907Z,0.70
2018-01-23T11:16:06.492Z,0.60
2018-01-23T11:18:34.087Z,0.30
2018-01-23T11:21:01.735Z,0.50
2018-01-23T11:23:29.412Z,0.47
2018-01-23T11:25:57.019Z,0.73
2018-01-23T11:28:24.622Z,1.60
2018-01-23T11:30:52.215Z,0.30
2018-01-23T11:33:20.790Z,0.50
2018-01-23T11:35:48.391Z,0.77
2018-01-23T11:38:15.967Z,0.40
2018-01-23T11:40:43.592Z,0.53
2018-01-23T11:43:11.939Z,0.30
2018-01-23T11:45:40.268Z,0.33
2018-01-23T11:48:07.834Z,0.40
2018-01-23T11:50:35.392Z,1.17
2018-01-23T11:53:02.984Z,0.60
2018-01-23T11:55:31.332Z,0.57
2018-01-23T11:57:58.914Z,0.33
2018-01-23T12:00:26.483Z,0.30
2018-01-23T12:02:54.110Z,0.30
2018-01-23T12:05:21.715Z,1.53
2018-01-23T12:07:49.296Z,0.37
2018-01-23T12:10:20.484Z,0.60
2018-01-23T12:12:48.090Z,0.30
2018-01-23T12:15:15.683Z,0.50
2018-01-23T12:17:43.460Z,0.23
2018-01-23T12:20:11.069Z,0.57
2018-01-23T12:22:38.679Z,0.40
2018-01-23T12:25:06.252Z,0.47
2018-01-23T12:27:33.992Z,0.33
2018-01-23T12:30:01.563Z,0.40
2018-01-23T12:32:29.192Z,0.40
2018-01-23T12:34:56.746Z,0.37
2018-01-23T12:37:24.341Z,0.30
2018-01-23T12:39:51.915Z,0.30
2018-01-23T12:42:19.498Z,0.30
2018-01-23T12:44:47.074Z,0.10
2018-01-23T12:47:14.680Z,0.33
2018-01-23T12:49:42.418Z,0.43
2018-01-23T12:52:10.086Z,0.30
2018-01-23T12:54:37.682Z,0.30
2018-01-23T12:57:05.279Z,0.30
2018-01-23T12:59:32.858Z,0.33
2018-01-23T13:02:00.434Z,0.30
2018-01-23T13:04:28.031Z,0.40
2018-01-23T13:06:55.723Z,0.20
2018-01-23T13:09:23.287Z,0.30
2018-01-23T13:11:50.859Z,0.27
2018-01-23T13:14:18.428Z,0.20
2018-01-23T13:16:46.007Z,0.37
2018-01-23T13:19:13.589Z,0.57
2018-01-23T13:21:41.191Z,0.30
2018-01-23T13:24:08.762Z,0.30
2018-01-23T13:26:36.350Z,0.30
2018-01-23T13:29:03.988Z,0.30
2018-01-23T13:31:31.581Z,0.73
2018-01-23T13:33:59.148Z,0.10
2018-01-23T13:36:26.935Z,0.33
2018-01-23T13:38:54.527Z,0.30
2018-01-23T13:41:22.902Z,0.50
2018-01-23T13:43:50.511Z,0.27
2018-01-23T13:46:18.099Z,0.27
2018-01-23T13:48:45.811Z,0.30
2018-01-23T13:51:13.463Z,0.30
2018-01-23T13:53:42.000Z,0.40
2018-01-23T13:56:09.758Z,0.57
2018-01-23T13:58:37.343Z,0.27
2018-01-23T14:01:04.982Z,0.30
2018-01-23T14:03:32.598Z,0.40
2018-01-23T14:06:00.174Z,0.27
2018-01-23T14:08:27.922Z,0.90
2018-01-23T14:10:55.508Z,0.27
2018-01-23T14:13:23.095Z,0.23
2018-01-23T14:15:50.703Z,0.50
2018-01-23T14:18:18.310Z,0.43
2018-01-23T14:20:45.885Z,0.30
2018-01-23T14:23:14.245Z,0.30
2018-01-23T14:25:41.992Z,0.20
2018-01-23T14:28:09.659Z,0.27
2018-01-23T14:30:37.219Z,0.20
2018-01-23T14:33:04.969Z,0.30
2018-01-23T14:35:32.538Z,0.30
2018-01-23T14:38:00.138Z,0.40
2018-01-23T14:40:27.748Z,0.30
2018-01-23T14:42:55.369Z,0.40
2018-01-23T14:45:23.084Z,0.40
2018-01-23T14:47:50.825Z,0.77
2018-01-23T14:50:18.388Z,0.70
2018-01-23T14:52:45.991Z,0.30
2018-01-23T14:55:13.599Z,0.40
2018-01-23T14:57:41.218Z,0.40
2018-01-23T15:00:08.891Z,0.50
2018-01-23T15:02:36.488Z,0.30
2018-01-23T15:05:04.091Z,0.40
2018-01-23T15:07:31.868Z,0.30
2018-01-23T15:09:59.538Z,0.30
2018-01-23T15:12:27.104Z,0.20
2018-01-23T15:14:54.883Z,0.20
2018-01-23T15:17:22.475Z,0.47
2018-01-23T15:19:50.032Z,0.40
2018-01-23T15:22:19.107Z,0.30
2018-01-23T15:24:46.674Z,0.40
2018-01-23T15:27:14.411Z,0.53
2018-01-23T15:29:41.982Z,0.33
2018-01-23T15:32:09.565Z,0.30
2018-01-23T15:34:37.151Z,0.30
2018-01-23T15:37:04.742Z,0.33
2018-01-23T15:39:32.527Z,0.20
2018-01-23T15:42:00.134Z,0.27
2018-01-23T15:44:27.714Z,0.40
2018-01-23T15:46:55.322Z,0.30
2018-01-23T15:49:22.902Z,0.50
2018-01-23T15:51:50.580Z,0.30
2018-01-23T15:54:18.147Z,0.30
2018-01-23T15:56:45.769Z,0.30
2018-01-23T15:59:14.312Z,0.23
2018-01-23T16:01:41.908Z,0.33
2018-01-23T16:04:10.250Z,0.20
2018-01-23T16:06:37.884Z,0.20
2018-01-23T16:09:05.451Z,0.30
2018-01-23T16:11:33.083Z,0.30
2018-01-23T16:14:00.659Z,0.30
2018-01-23T16:16:28.327Z,0.30
2018-01-23T16:18:55.909Z,0.20
2018-01-23T16:21:23.479Z,0.30
2018-01-23T16:23:51.822Z,0.30
2018-01-23T16:26:19.583Z,0.30
2018-01-23T16:28:47.138Z,0.30
2018-01-23T16:31:14.702Z,0.63
2018-01-23T16:33:42.353Z,0.60
2018-01-23T16:36:09.946Z,0.30
2018-01-23T16:38:37.536Z,0.30
2018-01-23T16:41:05.106Z,0.20
2018-01-23T16:43:32.698Z,0.30
2018-01-23T16:46:00.454Z,0.20
2018-01-23T16:48:28.043Z,0.20
2018-01-23T16:50:55.624Z,0.30
2018-01-23T16:53:23.978Z,0.87
2018-01-23T16:55:51.542Z,0.20
2018-01-23T16:58:19.902Z,0.40
2018-01-23T17:00:47.462Z,0.60
2018-01-23T17:03:15.063Z,0.33
2018-01-23T17:05:42.618Z,0.33
2018-01-23T17:08:10.210Z,0.40
2018-01-23T17:10:37.772Z,0.20
2018-01-23T17:13:05.534Z,0.60
2018-01-23T17:15:33.216Z,0.33
2018-01-23T17:18:00.851Z,0.47
2018-01-23T17:20:28.417Z,0.40
2018-01-23T17:22:56.008Z,0.27
2018-01-23T17:25:23.574Z,0.20
2018-01-23T17:27:52.112Z,0.23
2018-01-23T17:30:19.675Z,0.40
2018-01-23T17:32:47.264Z,0.23
2018-01-23T17:35:15.598Z,0.40
2018-01-23T17:37:43.318Z,0.30
2018-01-23T17:40:11.636Z,0.40
2018-01-23T17:42:39.223Z,0.30
2018-01-23T17:45:06.783Z,0.30
2018-01-23T17:47:34.338Z,0.20
2018-01-23T17:50:02.075Z,0.30
2018-01-23T17:52:29.650Z,0.20
2018-01-23T17:54:57.207Z,0.30
2018-01-23T17:57:24.766Z,0.30
2018-01-23T17:59:52.331Z,0.30
2018-01-23T18:02:19.898Z,0.40
2018-01-23T18:04:47.514Z,0.20
2018-01-23T18:07:15.084Z,0.27
2018-01-23T18:09:42.648Z,0.20
2018-01-23T18:12:10.223Z,0.40
2018-01-23T18:14:37.858Z,0.30
2018-01-23T18:17:05.408Z,0.57
2018-01-23T18:19:32.994Z,0.30
2018-01-23T18:22:00.740Z,0.30
2018-01-23T18:24:28.327Z,0.30
2018-01-23T18:26:55.955Z,0.40
2018-01-23T18:29:23.547Z,0.40
2018-01-23T18:31:51.982Z,0.27
2018-01-23T18:34:19.563Z,0.67
2018-01-23T18:36:47.132Z,0.30
2018-01-23T18:39:14.718Z,0.30
2018-01-23T18:41:42.285Z,0.30
2018-01-23T18:44:09.867Z,0.40
2018-01-23T18:46:37.430Z,0.30
2018-01-23T18:49:05.427Z,0.30
2018-01-23T18:51:32.991Z,0.40
2018-01-23T18:54:00.615Z,0.20
2018-01-23T18:56:28.174Z,0.30
2018-01-23T18:58:55.813Z,0.40
2018-01-23T19:01:23.537Z,0.30
2018-01-23T19:03:51.116Z,0.20
2018-01-23T19:06:18.774Z,0.30
2018-01-23T19:08:47.293Z,0.30
2018-01-23T19:11:14.930Z,0.30
2018-01-23T19:13:42.578Z,0.40
2018-01-23T19:16:10.135Z,0.50
2018-01-23T19:18:37.799Z,0.40
2018-01-23T19:21:05.498Z,0.50
2018-01-23T19:23:33.116Z,0.30
2018-01-23T19:26:00.683Z,0.30
2018-01-23T19:28:28.384Z,0.60
2018-01-23T19:30:56.123Z,0.23
2018-01-23T19:33:23.730Z,0.50
2018-01-23T19:35:52.063Z,0.30
2018-01-23T19:38:19.727Z,0.67
2018-01-23T19:40:47.285Z,0.33
2018-01-23T19:43:15.050Z,0.20
2018-01-23T19:45:42.818Z,0.20
2018-01-23T19:48:10.375Z,0.27
2018-01-23T19:50:37.942Z,0.30
2018-01-23T19:53:05.511Z,0.30
2018-01-23T19:55:33.069Z,0.20
2018-01-23T19:58:00.635Z,0.30
2018-01-23T20:00:28.187Z,0.30
2018-01-23T20:02:55.746Z,0.20
2018-01-23T20:05:23.321Z,0.33
2018-01-23T20:07:50.876Z,0.40
2018-01-23T20:10:19.311Z,0.30
2018-01-23T20:12:46.866Z,0.63
2018-01-23T20:15:14.426Z,0.20
2018-01-23T20:17:41.983Z,0.20
2018-01-23T20:20:09.586Z,0.30
2018-01-23T20:22:37.155Z,0.70
2018-01-23T20:25:05.577Z,0.40
2018-01-23T20:27:33.238Z,0.20
2018-01-23T20:30:00.823Z,0.30
2018-01-23T20:32:28.384Z,0.30
2018-01-23T20:34:55.980Z,0.30
2018-01-23T20:37:23.588Z,0.30
2018-01-23T20:39:51.247Z,0.30
2018-01-23T20:42:18.803Z,0.20
2018-01-23T20:44:46.553Z,0.27
2018-01-23T20:47:14.215Z,0.37
2018-01-23T20:49:41.807Z,0.27
2018-01-23T20:52:09.434Z,0.70
2018-01-23T20:54:37.015Z,0.40
2018-01-23T20:57:04.758Z,0.20
2018-01-23T20:59:32.342Z,0.40
2018-01-23T21:01:59.903Z,0.30
2018-01-23T21:04:27.486Z,0.30
2018-01-23T21:06:55.052Z,0.50
2018-01-23T21:09:23.258Z,0.20
2018-01-23T21:11:50.868Z,0.30
2018-01-23T21:14:18.579Z,0.30
2018-01-23T21:16:46.140Z,0.40
2018-01-23T21:19:13.736Z,0.37
2018-01-23T21:21:42.070Z,0.47
2018-01-23T21:24:10.744Z,1.10
2018-01-23T21:26:38.588Z,1.17
2018-01-23T21:29:06.296Z,0.37
2018-01-23T21:31:33.859Z,0.67
2018-01-23T21:34:01.603Z,1.47
2018-01-23T21:36:29.234Z,0.50
2018-01-23T21:38:56.814Z,0.20
2018-01-23T21:41:24.974Z,0.73
2018-01-23T21:43:52.580Z,0.50
2018-01-23T21:46:20.303Z,0.80
2018-01-23T21:48:47.968Z,0.80
2018-01-23T21:51:15.581Z,0.77
2018-01-23T21:53:43.919Z,0.90
2018-01-23T21:56:11.480Z,1.87
2018-01-23T21:58:39.222Z,0.77
2018-01-23T22:01:06.782Z,0.20
2018-01-23T22:03:34.438Z,0.73
2018-01-23T22:06:02.095Z,1.43
2018-01-23T22:08:29.642Z,2.37
2018-01-23T22:10:57.219Z,0.50
2018-01-23T22:13:24.879Z,0.50
2018-01-23T22:15:52.455Z,2.20
2018-01-23T22:18:21.956Z,0.50
2018-01-23T22:20:52.007Z,0.37
2018-01-23T22:23:19.616Z,1.10
2018-01-23T22:25:47.594Z,1.10
2018-01-23T22:28:15.154Z,1.07
2018-01-23T22:30:42.763Z,0.40
2018-01-23T22:33:10.354Z,0.60
2018-01-23T22:35:37.937Z,0.60
2018-01-23T22:38:05.491Z,1.80
2018-01-23T22:40:33.075Z,0.60
2018-01-23T22:43:03.029Z,1.33
2018-01-23T22:45:33.396Z,1.57
2018-01-23T22:48:00.951Z,3.40
2018-01-23T22:50:28.555Z,1.40
2018-01-23T22:52:56.113Z,0.40
2018-01-23T22:55:23.699Z,0.87
2018-01-23T22:57:51.262Z,2.70
2018-01-23T23:00:19.118Z,0.73
2018-01-23T23:02:46.690Z,2.33
2018-01-23T23:05:14.283Z,3.73
2018-01-23T23:07:41.914Z,3.23
2018-01-23T23:10:09.529Z,4.00
2018-01-23T23:12:39.149Z,2.10
2018-01-23T23:15:06.873Z,5.17
2018-01-23T23:17:34.445Z,1.60
2018-01-23T23:20:02.055Z,5.50
2018-01-23T23:22:29.828Z,2.03
2018-01-23T23:24:57.408Z,2.47
2018-01-23T23:27:25.755Z,3.73
2018-01-23T23:29:53.365Z,1.23
2018-01-23T23:32:20.943Z,2.10
2018-01-23T23:34:48.522Z,2.57
2018-01-23T23:37:16.083Z,3.80
2018-01-23T23:39:43.639Z,1.97
2018-01-23T23:42:11.199Z,4.23
2018-01-23T23:44:38.913Z,2.07
2018-01-23T23:47:06.491Z,2.20
2018-01-23T23:49:34.047Z,1.63
2018-01-23T23:52:01.615Z,1.00
2018-01-23T23:54:29.290Z,0.97
2018-01-23T23:56:57.053Z,1.60
2018-01-23T23:59:24.639Z,4.33
